<?xml version="1.0" encoding="UTF-8"?>
<gpx version="1.1" creator="GPSBabel - https://www.gpsbabel.org" xmlns="http://www.topografix.com/GPX/1/1" xmlns:xsi="http://www.w3.org/2001/XMLSchema-instance">
  <metadata>
    <name>Feierabend</name>
    <link href="https://www.strava.com/activities/17532200095"/>
    <time>2026-08-31T19:40:33.730Z</time>
    <keywords>activities:17532200095</keywords>
    <bounds minlat="48.822133000" minlon="10.095564000" maxlat="48.853441000" maxlon="10.199630000"/>
  </metadata>
  <trk>
    <name>Feierabend</name>
    <trkseg>
      <trkpt lat="48.841664000" lon="10.095593000">
        <ele>432.600</ele>
        <time>2026-02-26T15:57:26Z</time>
      </trkpt>
      <trkpt lat="48.841759000" lon="10.095564000">
        <ele>432.700</ele>
        <time>2026-02-26T15:57:29Z</time>
      </trkpt>
      <trkpt lat="48.841830000" lon="10.095596000">
        <ele>433.200</ele>
        <time>2026-02-26T15:57:33Z</time>
      </trkpt>
      <trkpt lat="48.841869000" lon="10.095694000">
        <ele>435.800</ele>
        <time>2026-02-26T15:57:42Z</time>
      </trkpt>
      <trkpt lat="48.841922000" lon="10.095768000">
        <ele>439.300</ele>
        <time>2026-02-26T15:59:04Z</time>
      </trkpt>
      <trkpt lat="48.841998000" lon="10.096170000">
        <ele>440.300</ele>
        <time>2026-02-26T15:59:22Z</time>
      </trkpt>
      <trkpt lat="48.842128000" lon="10.097503000">
        <ele>440.000</ele>
        <time>2026-02-26T16:00:53Z</time>
      </trkpt>
      <trkpt lat="48.842199000" lon="10.097531000">
        <ele>439.900</ele>
        <time>2026-02-26T16:02:07Z</time>
      </trkpt>
      <trkpt lat="48.842144000" lon="10.097603000">
        <ele>434.200</ele>
        <time>2026-02-26T16:02:11Z</time>
      </trkpt>
      <trkpt lat="48.842225000" lon="10.097821000">
        <ele>433.200</ele>
        <time>2026-02-26T16:02:14Z</time>
      </trkpt>
      <trkpt lat="48.842295000" lon="10.097904000">
        <ele>433.300</ele>
        <time>2026-02-26T16:02:17Z</time>
      </trkpt>
      <trkpt lat="48.842386000" lon="10.097958000">
        <ele>433.500</ele>
        <time>2026-02-26T16:02:20Z</time>
      </trkpt>
      <trkpt lat="48.842489000" lon="10.097926000">
        <ele>433.600</ele>
        <time>2026-02-26T16:02:23Z</time>
      </trkpt>
      <trkpt lat="48.842615000" lon="10.098036000">
        <ele>433.800</ele>
        <time>2026-02-26T16:02:27Z</time>
      </trkpt>
      <trkpt lat="48.842703000" lon="10.098064000">
        <ele>433.900</ele>
        <time>2026-02-26T16:02:30Z</time>
      </trkpt>
      <trkpt lat="48.842752000" lon="10.098185000">
        <ele>434.100</ele>
        <time>2026-02-26T16:02:33Z</time>
      </trkpt>
      <trkpt lat="48.842814000" lon="10.098665000">
        <ele>434.600</ele>
        <time>2026-02-26T16:02:43Z</time>
      </trkpt>
      <trkpt lat="48.842911000" lon="10.099054000">
        <ele>435.700</ele>
        <time>2026-02-26T16:02:53Z</time>
      </trkpt>
      <trkpt lat="48.842899000" lon="10.099172000">
        <ele>436.000</ele>
        <time>2026-02-26T16:02:57Z</time>
      </trkpt>
      <trkpt lat="48.842912000" lon="10.099435000">
        <ele>436.400</ele>
        <time>2026-02-26T16:03:03Z</time>
      </trkpt>
      <trkpt lat="48.842809000" lon="10.099638000">
        <ele>436.800</ele>
        <time>2026-02-26T16:03:36Z</time>
      </trkpt>
      <trkpt lat="48.842765000" lon="10.099767000">
        <ele>436.600</ele>
        <time>2026-02-26T16:03:38Z</time>
      </trkpt>
      <trkpt lat="48.842817000" lon="10.099885000">
        <ele>436.800</ele>
        <time>2026-02-26T16:03:41Z</time>
      </trkpt>
      <trkpt lat="48.843017000" lon="10.100508000">
        <ele>437.900</ele>
        <time>2026-02-26T16:03:54Z</time>
      </trkpt>
      <trkpt lat="48.843133000" lon="10.100702000">
        <ele>438.200</ele>
        <time>2026-02-26T16:03:58Z</time>
      </trkpt>
      <trkpt lat="48.843188000" lon="10.100915000">
        <ele>438.500</ele>
        <time>2026-02-26T16:04:02Z</time>
      </trkpt>
      <trkpt lat="48.843237000" lon="10.101045000">
        <ele>438.600</ele>
        <time>2026-02-26T16:04:05Z</time>
      </trkpt>
      <trkpt lat="48.843253000" lon="10.101166000">
        <ele>438.600</ele>
        <time>2026-02-26T16:04:07Z</time>
      </trkpt>
      <trkpt lat="48.843323000" lon="10.101379000">
        <ele>438.800</ele>
        <time>2026-02-26T16:04:11Z</time>
      </trkpt>
      <trkpt lat="48.843460000" lon="10.101637000">
        <ele>438.900</ele>
        <time>2026-02-26T16:04:17Z</time>
      </trkpt>
      <trkpt lat="48.843546000" lon="10.101740000">
        <ele>439.000</ele>
        <time>2026-02-26T16:04:20Z</time>
      </trkpt>
      <trkpt lat="48.843732000" lon="10.102067000">
        <ele>439.600</ele>
        <time>2026-02-26T16:04:28Z</time>
      </trkpt>
      <trkpt lat="48.843757000" lon="10.102177000">
        <ele>439.800</ele>
        <time>2026-02-26T16:04:30Z</time>
      </trkpt>
      <trkpt lat="48.844052000" lon="10.103023000">
        <ele>442.100</ele>
        <time>2026-02-26T16:04:48Z</time>
      </trkpt>
      <trkpt lat="48.844252000" lon="10.103524000">
        <ele>443.800</ele>
        <time>2026-02-26T16:04:59Z</time>
      </trkpt>
      <trkpt lat="48.844322000" lon="10.103777000">
        <ele>444.400</ele>
        <time>2026-02-26T16:05:04Z</time>
      </trkpt>
      <trkpt lat="48.844417000" lon="10.104028000">
        <ele>445.300</ele>
        <time>2026-02-26T16:05:10Z</time>
      </trkpt>
      <trkpt lat="48.844478000" lon="10.104146000">
        <ele>445.800</ele>
        <time>2026-02-26T16:05:13Z</time>
      </trkpt>
      <trkpt lat="48.844590000" lon="10.104463000">
        <ele>447.200</ele>
        <time>2026-02-26T16:05:20Z</time>
      </trkpt>
      <trkpt lat="48.844699000" lon="10.104669000">
        <ele>448.400</ele>
        <time>2026-02-26T16:05:26Z</time>
      </trkpt>
      <trkpt lat="48.844741000" lon="10.104791000">
        <ele>449.000</ele>
        <time>2026-02-26T16:05:30Z</time>
      </trkpt>
      <trkpt lat="48.844876000" lon="10.104963000">
        <ele>450.200</ele>
        <time>2026-02-26T16:05:37Z</time>
      </trkpt>
      <trkpt lat="48.844939000" lon="10.105080000">
        <ele>450.900</ele>
        <time>2026-02-26T16:05:41Z</time>
      </trkpt>
      <trkpt lat="48.845081000" lon="10.105263000">
        <ele>452.100</ele>
        <time>2026-02-26T16:05:48Z</time>
      </trkpt>
      <trkpt lat="48.845228000" lon="10.105384000">
        <ele>453.200</ele>
        <time>2026-02-26T16:05:55Z</time>
      </trkpt>
      <trkpt lat="48.845273000" lon="10.105480000">
        <ele>453.700</ele>
        <time>2026-02-26T16:05:58Z</time>
      </trkpt>
      <trkpt lat="48.845347000" lon="10.105543000">
        <ele>454.200</ele>
        <time>2026-02-26T16:06:02Z</time>
      </trkpt>
      <trkpt lat="48.845401000" lon="10.105657000">
        <ele>454.600</ele>
        <time>2026-02-26T16:06:06Z</time>
      </trkpt>
      <trkpt lat="48.845448000" lon="10.105918000">
        <ele>454.900</ele>
        <time>2026-02-26T16:06:13Z</time>
      </trkpt>
      <trkpt lat="48.845497000" lon="10.106648000">
        <ele>452.000</ele>
        <time>2026-02-26T16:06:26Z</time>
      </trkpt>
      <trkpt lat="48.845540000" lon="10.106787000">
        <ele>451.500</ele>
        <time>2026-02-26T16:06:28Z</time>
      </trkpt>
      <trkpt lat="48.845610000" lon="10.106885000">
        <ele>451.400</ele>
        <time>2026-02-26T16:06:30Z</time>
      </trkpt>
      <trkpt lat="48.845653000" lon="10.107007000">
        <ele>451.200</ele>
        <time>2026-02-26T16:06:32Z</time>
      </trkpt>
      <trkpt lat="48.845659000" lon="10.107151000">
        <ele>451.100</ele>
        <time>2026-02-26T16:06:34Z</time>
      </trkpt>
      <trkpt lat="48.845599000" lon="10.107443000">
        <ele>451.000</ele>
        <time>2026-02-26T16:06:38Z</time>
      </trkpt>
      <trkpt lat="48.845596000" lon="10.107555000">
        <ele>451.000</ele>
        <time>2026-02-26T16:06:40Z</time>
      </trkpt>
      <trkpt lat="48.845618000" lon="10.107694000">
        <ele>451.200</ele>
        <time>2026-02-26T16:06:42Z</time>
      </trkpt>
      <trkpt lat="48.845729000" lon="10.108134000">
        <ele>452.100</ele>
        <time>2026-02-26T16:06:48Z</time>
      </trkpt>
      <trkpt lat="48.845833000" lon="10.108624000">
        <ele>453.000</ele>
        <time>2026-02-26T16:06:57Z</time>
      </trkpt>
      <trkpt lat="48.845997000" lon="10.109136000">
        <ele>454.000</ele>
        <time>2026-02-26T16:07:07Z</time>
      </trkpt>
      <trkpt lat="48.846097000" lon="10.109551000">
        <ele>454.700</ele>
        <time>2026-02-26T16:07:14Z</time>
      </trkpt>
      <trkpt lat="48.846153000" lon="10.109680000">
        <ele>455.000</ele>
        <time>2026-02-26T16:07:17Z</time>
      </trkpt>
      <trkpt lat="48.846208000" lon="10.109917000">
        <ele>455.400</ele>
        <time>2026-02-26T16:07:23Z</time>
      </trkpt>
      <trkpt lat="48.846260000" lon="10.110050000">
        <ele>455.700</ele>
        <time>2026-02-26T16:07:26Z</time>
      </trkpt>
      <trkpt lat="48.846379000" lon="10.110444000">
        <ele>456.400</ele>
        <time>2026-02-26T16:07:35Z</time>
      </trkpt>
      <trkpt lat="48.846556000" lon="10.110951000">
        <ele>457.200</ele>
        <time>2026-02-26T16:07:43Z</time>
      </trkpt>
      <trkpt lat="48.846681000" lon="10.111435000">
        <ele>458.000</ele>
        <time>2026-02-26T16:07:51Z</time>
      </trkpt>
      <trkpt lat="48.846723000" lon="10.111652000">
        <ele>458.300</ele>
        <time>2026-02-26T16:07:55Z</time>
      </trkpt>
      <trkpt lat="48.846767000" lon="10.112134000">
        <ele>459.000</ele>
        <time>2026-02-26T16:08:04Z</time>
      </trkpt>
      <trkpt lat="48.846814000" lon="10.112481000">
        <ele>459.700</ele>
        <time>2026-02-26T16:08:10Z</time>
      </trkpt>
      <trkpt lat="48.846830000" lon="10.112747000">
        <ele>460.300</ele>
        <time>2026-02-26T16:08:16Z</time>
      </trkpt>
      <trkpt lat="48.846933000" lon="10.113232000">
        <ele>461.200</ele>
        <time>2026-02-26T16:08:29Z</time>
      </trkpt>
      <trkpt lat="48.847061000" lon="10.114372000">
        <ele>463.400</ele>
        <time>2026-02-26T16:08:53Z</time>
      </trkpt>
      <trkpt lat="48.847154000" lon="10.114876000">
        <ele>464.400</ele>
        <time>2026-02-26T16:09:02Z</time>
      </trkpt>
      <trkpt lat="48.847165000" lon="10.115113000">
        <ele>464.800</ele>
        <time>2026-02-26T16:09:06Z</time>
      </trkpt>
      <trkpt lat="48.847299000" lon="10.115827000">
        <ele>466.400</ele>
        <time>2026-02-26T16:09:21Z</time>
      </trkpt>
      <trkpt lat="48.847326000" lon="10.116235000">
        <ele>467.300</ele>
        <time>2026-02-26T16:09:30Z</time>
      </trkpt>
      <trkpt lat="48.847351000" lon="10.116376000">
        <ele>467.500</ele>
        <time>2026-02-26T16:09:33Z</time>
      </trkpt>
      <trkpt lat="48.847409000" lon="10.117115000">
        <ele>468.500</ele>
        <time>2026-02-26T16:09:48Z</time>
      </trkpt>
      <trkpt lat="48.847618000" lon="10.118735000">
        <ele>471.800</ele>
        <time>2026-02-26T16:10:21Z</time>
      </trkpt>
      <trkpt lat="48.847735000" lon="10.119159000">
        <ele>472.700</ele>
        <time>2026-02-26T16:10:30Z</time>
      </trkpt>
      <trkpt lat="48.847820000" lon="10.119527000">
        <ele>473.600</ele>
        <time>2026-02-26T16:10:39Z</time>
      </trkpt>
      <trkpt lat="48.847986000" lon="10.120117000">
        <ele>474.800</ele>
        <time>2026-02-26T16:10:58Z</time>
      </trkpt>
      <trkpt lat="48.848043000" lon="10.120394000">
        <ele>475.300</ele>
        <time>2026-02-26T16:11:05Z</time>
      </trkpt>
      <trkpt lat="48.848255000" lon="10.121077000">
        <ele>476.600</ele>
        <time>2026-02-26T16:11:31Z</time>
      </trkpt>
      <trkpt lat="48.848412000" lon="10.121428000">
        <ele>477.400</ele>
        <time>2026-02-26T16:11:44Z</time>
      </trkpt>
      <trkpt lat="48.848480000" lon="10.121550000">
        <ele>477.700</ele>
        <time>2026-02-26T16:11:48Z</time>
      </trkpt>
      <trkpt lat="48.848821000" lon="10.121971000">
        <ele>478.800</ele>
        <time>2026-02-26T16:12:03Z</time>
      </trkpt>
      <trkpt lat="48.848888000" lon="10.122035000">
        <ele>479.000</ele>
        <time>2026-02-26T16:12:06Z</time>
      </trkpt>
      <trkpt lat="48.849339000" lon="10.122596000">
        <ele>480.700</ele>
        <time>2026-02-26T16:12:42Z</time>
      </trkpt>
      <trkpt lat="48.849424000" lon="10.122656000">
        <ele>481.000</ele>
        <time>2026-02-26T16:12:45Z</time>
      </trkpt>
      <trkpt lat="48.849736000" lon="10.123037000">
        <ele>482.200</ele>
        <time>2026-02-26T16:12:57Z</time>
      </trkpt>
      <trkpt lat="48.849808000" lon="10.123105000">
        <ele>482.500</ele>
        <time>2026-02-26T16:13:00Z</time>
      </trkpt>
      <trkpt lat="48.850153000" lon="10.123551000">
        <ele>484.500</ele>
        <time>2026-02-26T16:13:15Z</time>
      </trkpt>
      <trkpt lat="48.850624000" lon="10.124080000">
        <ele>486.700</ele>
        <time>2026-02-26T16:13:33Z</time>
      </trkpt>
      <trkpt lat="48.851220000" lon="10.124843000">
        <ele>489.500</ele>
        <time>2026-02-26T16:13:57Z</time>
      </trkpt>
      <trkpt lat="48.851431000" lon="10.125058000">
        <ele>490.600</ele>
        <time>2026-02-26T16:14:06Z</time>
      </trkpt>
      <trkpt lat="48.851654000" lon="10.125344000">
        <ele>491.800</ele>
        <time>2026-02-26T16:14:15Z</time>
      </trkpt>
      <trkpt lat="48.851803000" lon="10.125494000">
        <ele>492.400</ele>
        <time>2026-02-26T16:14:21Z</time>
      </trkpt>
      <trkpt lat="48.851883000" lon="10.125540000">
        <ele>492.700</ele>
        <time>2026-02-26T16:14:24Z</time>
      </trkpt>
      <trkpt lat="48.852061000" lon="10.125840000">
        <ele>493.700</ele>
        <time>2026-02-26T16:14:31Z</time>
      </trkpt>
      <trkpt lat="48.852221000" lon="10.126016000">
        <ele>494.400</ele>
        <time>2026-02-26T16:14:37Z</time>
      </trkpt>
      <trkpt lat="48.852524000" lon="10.126405000">
        <ele>495.900</ele>
        <time>2026-02-26T16:14:49Z</time>
      </trkpt>
      <trkpt lat="48.852674000" lon="10.126558000">
        <ele>496.600</ele>
        <time>2026-02-26T16:14:55Z</time>
      </trkpt>
      <trkpt lat="48.852749000" lon="10.126665000">
        <ele>497.000</ele>
        <time>2026-02-26T16:14:58Z</time>
      </trkpt>
      <trkpt lat="48.852904000" lon="10.126805000">
        <ele>497.800</ele>
        <time>2026-02-26T16:15:04Z</time>
      </trkpt>
      <trkpt lat="48.853351000" lon="10.127321000">
        <ele>501.600</ele>
        <time>2026-02-26T16:15:25Z</time>
      </trkpt>
      <trkpt lat="48.853410000" lon="10.127413000">
        <ele>502.300</ele>
        <time>2026-02-26T16:15:29Z</time>
      </trkpt>
      <trkpt lat="48.853441000" lon="10.127539000">
        <ele>502.800</ele>
        <time>2026-02-26T16:15:33Z</time>
      </trkpt>
      <trkpt lat="48.853382000" lon="10.127655000">
        <ele>502.600</ele>
        <time>2026-02-26T16:15:37Z</time>
      </trkpt>
      <trkpt lat="48.853277000" lon="10.127726000">
        <ele>502.200</ele>
        <time>2026-02-26T16:15:40Z</time>
      </trkpt>
      <trkpt lat="48.853100000" lon="10.127744000">
        <ele>502.000</ele>
        <time>2026-02-26T16:15:44Z</time>
      </trkpt>
      <trkpt lat="48.852925000" lon="10.127652000">
        <ele>502.200</ele>
        <time>2026-02-26T16:15:49Z</time>
      </trkpt>
      <trkpt lat="48.852735000" lon="10.127591000">
        <ele>502.900</ele>
        <time>2026-02-26T16:15:54Z</time>
      </trkpt>
      <trkpt lat="48.852632000" lon="10.127591000">
        <ele>503.500</ele>
        <time>2026-02-26T16:15:57Z</time>
      </trkpt>
      <trkpt lat="48.852168000" lon="10.127684000">
        <ele>507.100</ele>
        <time>2026-02-26T16:16:12Z</time>
      </trkpt>
      <trkpt lat="48.851836000" lon="10.127859000">
        <ele>511.100</ele>
        <time>2026-02-26T16:16:27Z</time>
      </trkpt>
      <trkpt lat="48.851764000" lon="10.127929000">
        <ele>512.100</ele>
        <time>2026-02-26T16:16:34Z</time>
      </trkpt>
      <trkpt lat="48.851513000" lon="10.128248000">
        <ele>516.200</ele>
        <time>2026-02-26T16:16:51Z</time>
      </trkpt>
      <trkpt lat="48.851420000" lon="10.128438000">
        <ele>518.600</ele>
        <time>2026-02-26T16:17:01Z</time>
      </trkpt>
      <trkpt lat="48.851361000" lon="10.128506000">
        <ele>519.800</ele>
        <time>2026-02-26T16:17:06Z</time>
      </trkpt>
      <trkpt lat="48.851263000" lon="10.128691000">
        <ele>522.700</ele>
        <time>2026-02-26T16:17:20Z</time>
      </trkpt>
      <trkpt lat="48.850979000" lon="10.128960000">
        <ele>529.000</ele>
        <time>2026-02-26T16:17:45Z</time>
      </trkpt>
      <trkpt lat="48.850815000" lon="10.129057000">
        <ele>531.700</ele>
        <time>2026-02-26T16:17:59Z</time>
      </trkpt>
      <trkpt lat="48.850734000" lon="10.129085000">
        <ele>532.900</ele>
        <time>2026-02-26T16:18:05Z</time>
      </trkpt>
      <trkpt lat="48.850658000" lon="10.129075000">
        <ele>534.000</ele>
        <time>2026-02-26T16:18:10Z</time>
      </trkpt>
      <trkpt lat="48.850427000" lon="10.129142000">
        <ele>537.300</ele>
        <time>2026-02-26T16:18:27Z</time>
      </trkpt>
      <trkpt lat="48.850333000" lon="10.129143000">
        <ele>538.400</ele>
        <time>2026-02-26T16:18:32Z</time>
      </trkpt>
      <trkpt lat="48.850256000" lon="10.129121000">
        <ele>539.100</ele>
        <time>2026-02-26T16:18:36Z</time>
      </trkpt>
      <trkpt lat="48.850002000" lon="10.129184000">
        <ele>540.800</ele>
        <time>2026-02-26T16:18:49Z</time>
      </trkpt>
      <trkpt lat="48.849841000" lon="10.129178000">
        <ele>542.200</ele>
        <time>2026-02-26T16:18:58Z</time>
      </trkpt>
      <trkpt lat="48.849745000" lon="10.129357000">
        <ele>544.100</ele>
        <time>2026-02-26T16:19:06Z</time>
      </trkpt>
      <trkpt lat="48.849656000" lon="10.129357000">
        <ele>545.200</ele>
        <time>2026-02-26T16:19:10Z</time>
      </trkpt>
      <trkpt lat="48.849587000" lon="10.129314000">
        <ele>545.400</ele>
        <time>2026-02-26T16:19:13Z</time>
      </trkpt>
      <trkpt lat="48.849435000" lon="10.129140000">
        <ele>546.100</ele>
        <time>2026-02-26T16:19:20Z</time>
      </trkpt>
      <trkpt lat="48.849351000" lon="10.129067000">
        <ele>546.400</ele>
        <time>2026-02-26T16:19:24Z</time>
      </trkpt>
      <trkpt lat="48.849174000" lon="10.128954000">
        <ele>546.800</ele>
        <time>2026-02-26T16:19:32Z</time>
      </trkpt>
      <trkpt lat="48.849053000" lon="10.128766000">
        <ele>546.700</ele>
        <time>2026-02-26T16:19:40Z</time>
      </trkpt>
      <trkpt lat="48.849011000" lon="10.128661000">
        <ele>546.600</ele>
        <time>2026-02-26T16:19:43Z</time>
      </trkpt>
      <trkpt lat="48.848848000" lon="10.128457000">
        <ele>546.400</ele>
        <time>2026-02-26T16:19:49Z</time>
      </trkpt>
      <trkpt lat="48.848617000" lon="10.128245000">
        <ele>545.900</ele>
        <time>2026-02-26T16:19:58Z</time>
      </trkpt>
      <trkpt lat="48.848357000" lon="10.128136000">
        <ele>545.500</ele>
        <time>2026-02-26T16:20:06Z</time>
      </trkpt>
      <trkpt lat="48.848182000" lon="10.128098000">
        <ele>545.400</ele>
        <time>2026-02-26T16:20:12Z</time>
      </trkpt>
      <trkpt lat="48.848036000" lon="10.128026000">
        <ele>544.900</ele>
        <time>2026-02-26T16:20:17Z</time>
      </trkpt>
      <trkpt lat="48.847878000" lon="10.127907000">
        <ele>544.300</ele>
        <time>2026-02-26T16:20:21Z</time>
      </trkpt>
      <trkpt lat="48.847540000" lon="10.127280000">
        <ele>543.300</ele>
        <time>2026-02-26T16:20:33Z</time>
      </trkpt>
      <trkpt lat="48.847359000" lon="10.127007000">
        <ele>543.500</ele>
        <time>2026-02-26T16:20:41Z</time>
      </trkpt>
      <trkpt lat="48.847319000" lon="10.126916000">
        <ele>543.500</ele>
        <time>2026-02-26T16:20:49Z</time>
      </trkpt>
      <trkpt lat="48.847135000" lon="10.126607000">
        <ele>543.400</ele>
        <time>2026-02-26T16:23:04Z</time>
      </trkpt>
      <trkpt lat="48.847007000" lon="10.126322000">
        <ele>543.100</ele>
        <time>2026-02-26T16:23:10Z</time>
      </trkpt>
      <trkpt lat="48.846980000" lon="10.126205000">
        <ele>542.900</ele>
        <time>2026-02-26T16:23:12Z</time>
      </trkpt>
      <trkpt lat="48.846862000" lon="10.125847000">
        <ele>542.600</ele>
        <time>2026-02-26T16:23:18Z</time>
      </trkpt>
      <trkpt lat="48.846793000" lon="10.125764000">
        <ele>542.600</ele>
        <time>2026-02-26T16:23:20Z</time>
      </trkpt>
      <trkpt lat="48.846718000" lon="10.125766000">
        <ele>542.700</ele>
        <time>2026-02-26T16:23:22Z</time>
      </trkpt>
      <trkpt lat="48.846645000" lon="10.125807000">
        <ele>542.900</ele>
        <time>2026-02-26T16:23:24Z</time>
      </trkpt>
      <trkpt lat="48.846511000" lon="10.125996000">
        <ele>543.500</ele>
        <time>2026-02-26T16:23:29Z</time>
      </trkpt>
      <trkpt lat="48.846267000" lon="10.126191000">
        <ele>544.700</ele>
        <time>2026-02-26T16:23:38Z</time>
      </trkpt>
      <trkpt lat="48.846190000" lon="10.126296000">
        <ele>545.100</ele>
        <time>2026-02-26T16:23:41Z</time>
      </trkpt>
      <trkpt lat="48.845691000" lon="10.126717000">
        <ele>547.100</ele>
        <time>2026-02-26T16:24:02Z</time>
      </trkpt>
      <trkpt lat="48.845637000" lon="10.126799000">
        <ele>547.300</ele>
        <time>2026-02-26T16:24:05Z</time>
      </trkpt>
      <trkpt lat="48.845647000" lon="10.126920000">
        <ele>547.700</ele>
        <time>2026-02-26T16:24:09Z</time>
      </trkpt>
      <trkpt lat="48.845693000" lon="10.127006000">
        <ele>548.000</ele>
        <time>2026-02-26T16:24:12Z</time>
      </trkpt>
      <trkpt lat="48.845720000" lon="10.127136000">
        <ele>548.400</ele>
        <time>2026-02-26T16:24:15Z</time>
      </trkpt>
      <trkpt lat="48.845791000" lon="10.127361000">
        <ele>549.200</ele>
        <time>2026-02-26T16:24:21Z</time>
      </trkpt>
      <trkpt lat="48.845829000" lon="10.127607000">
        <ele>550.100</ele>
        <time>2026-02-26T16:24:29Z</time>
      </trkpt>
      <trkpt lat="48.846027000" lon="10.128360000">
        <ele>553.900</ele>
        <time>2026-02-26T16:24:51Z</time>
      </trkpt>
      <trkpt lat="48.846186000" lon="10.128800000">
        <ele>556.900</ele>
        <time>2026-02-26T16:25:07Z</time>
      </trkpt>
      <trkpt lat="48.846254000" lon="10.129040000">
        <ele>558.900</ele>
        <time>2026-02-26T16:25:18Z</time>
      </trkpt>
      <trkpt lat="48.846336000" lon="10.129425000">
        <ele>562.600</ele>
        <time>2026-02-26T16:25:33Z</time>
      </trkpt>
      <trkpt lat="48.846322000" lon="10.129542000">
        <ele>563.800</ele>
        <time>2026-02-26T16:25:40Z</time>
      </trkpt>
      <trkpt lat="48.846365000" lon="10.129780000">
        <ele>566.300</ele>
        <time>2026-02-26T16:25:52Z</time>
      </trkpt>
      <trkpt lat="48.846443000" lon="10.129969000">
        <ele>568.100</ele>
        <time>2026-02-26T16:26:02Z</time>
      </trkpt>
      <trkpt lat="48.846507000" lon="10.130030000">
        <ele>569.000</ele>
        <time>2026-02-26T16:26:06Z</time>
      </trkpt>
      <trkpt lat="48.846653000" lon="10.130111000">
        <ele>570.900</ele>
        <time>2026-02-26T16:26:15Z</time>
      </trkpt>
      <trkpt lat="48.846785000" lon="10.130231000">
        <ele>572.600</ele>
        <time>2026-02-26T16:26:24Z</time>
      </trkpt>
      <trkpt lat="48.846865000" lon="10.130242000">
        <ele>573.400</ele>
        <time>2026-02-26T16:26:28Z</time>
      </trkpt>
      <trkpt lat="48.847010000" lon="10.130315000">
        <ele>574.600</ele>
        <time>2026-02-26T16:26:39Z</time>
      </trkpt>
      <trkpt lat="48.847178000" lon="10.130440000">
        <ele>575.700</ele>
        <time>2026-02-26T16:26:46Z</time>
      </trkpt>
      <trkpt lat="48.847232000" lon="10.130517000">
        <ele>576.100</ele>
        <time>2026-02-26T16:26:49Z</time>
      </trkpt>
      <trkpt lat="48.847458000" lon="10.130650000">
        <ele>577.400</ele>
        <time>2026-02-26T16:27:00Z</time>
      </trkpt>
      <trkpt lat="48.847596000" lon="10.130792000">
        <ele>578.300</ele>
        <time>2026-02-26T16:27:08Z</time>
      </trkpt>
      <trkpt lat="48.847914000" lon="10.131247000">
        <ele>580.800</ele>
        <time>2026-02-26T16:27:26Z</time>
      </trkpt>
      <trkpt lat="48.848067000" lon="10.131371000">
        <ele>581.800</ele>
        <time>2026-02-26T16:27:33Z</time>
      </trkpt>
      <trkpt lat="48.848138000" lon="10.131470000">
        <ele>582.400</ele>
        <time>2026-02-26T16:27:37Z</time>
      </trkpt>
      <trkpt lat="48.848183000" lon="10.131563000">
        <ele>582.900</ele>
        <time>2026-02-26T16:27:41Z</time>
      </trkpt>
      <trkpt lat="48.848338000" lon="10.131702000">
        <ele>584.400</ele>
        <time>2026-02-26T16:27:48Z</time>
      </trkpt>
      <trkpt lat="48.848395000" lon="10.131787000">
        <ele>585.200</ele>
        <time>2026-02-26T16:27:53Z</time>
      </trkpt>
      <trkpt lat="48.848583000" lon="10.131986000">
        <ele>587.400</ele>
        <time>2026-02-26T16:28:05Z</time>
      </trkpt>
      <trkpt lat="48.848751000" lon="10.132271000">
        <ele>589.800</ele>
        <time>2026-02-26T16:28:17Z</time>
      </trkpt>
      <trkpt lat="48.848895000" lon="10.132398000">
        <ele>591.500</ele>
        <time>2026-02-26T16:28:24Z</time>
      </trkpt>
      <trkpt lat="48.848973000" lon="10.132620000">
        <ele>593.200</ele>
        <time>2026-02-26T16:28:33Z</time>
      </trkpt>
      <trkpt lat="48.849155000" lon="10.132860000">
        <ele>595.600</ele>
        <time>2026-02-26T16:28:47Z</time>
      </trkpt>
      <trkpt lat="48.849205000" lon="10.132966000">
        <ele>596.500</ele>
        <time>2026-02-26T16:28:52Z</time>
      </trkpt>
      <trkpt lat="48.849276000" lon="10.133039000">
        <ele>597.400</ele>
        <time>2026-02-26T16:28:58Z</time>
      </trkpt>
      <trkpt lat="48.849501000" lon="10.133435000">
        <ele>600.900</ele>
        <time>2026-02-26T16:29:15Z</time>
      </trkpt>
      <trkpt lat="48.849531000" lon="10.133563000">
        <ele>601.900</ele>
        <time>2026-02-26T16:29:19Z</time>
      </trkpt>
      <trkpt lat="48.849587000" lon="10.133669000">
        <ele>602.800</ele>
        <time>2026-02-26T16:29:24Z</time>
      </trkpt>
      <trkpt lat="48.849634000" lon="10.133878000">
        <ele>604.300</ele>
        <time>2026-02-26T16:29:32Z</time>
      </trkpt>
      <trkpt lat="48.849675000" lon="10.133984000">
        <ele>605.100</ele>
        <time>2026-02-26T16:29:36Z</time>
      </trkpt>
      <trkpt lat="48.849768000" lon="10.134343000">
        <ele>607.700</ele>
        <time>2026-02-26T16:29:49Z</time>
      </trkpt>
      <trkpt lat="48.849868000" lon="10.134569000">
        <ele>609.500</ele>
        <time>2026-02-26T16:29:59Z</time>
      </trkpt>
      <trkpt lat="48.849933000" lon="10.134782000">
        <ele>611.000</ele>
        <time>2026-02-26T16:30:08Z</time>
      </trkpt>
      <trkpt lat="48.849937000" lon="10.134896000">
        <ele>611.800</ele>
        <time>2026-02-26T16:30:12Z</time>
      </trkpt>
      <trkpt lat="48.849977000" lon="10.134996000">
        <ele>612.600</ele>
        <time>2026-02-26T16:30:16Z</time>
      </trkpt>
      <trkpt lat="48.850085000" lon="10.135601000">
        <ele>616.700</ele>
        <time>2026-02-26T16:30:39Z</time>
      </trkpt>
      <trkpt lat="48.850163000" lon="10.135947000">
        <ele>619.000</ele>
        <time>2026-02-26T16:30:51Z</time>
      </trkpt>
      <trkpt lat="48.850211000" lon="10.136081000">
        <ele>620.000</ele>
        <time>2026-02-26T16:30:55Z</time>
      </trkpt>
      <trkpt lat="48.850238000" lon="10.136319000">
        <ele>621.600</ele>
        <time>2026-02-26T16:31:03Z</time>
      </trkpt>
      <trkpt lat="48.850229000" lon="10.136435000">
        <ele>622.300</ele>
        <time>2026-02-26T16:31:07Z</time>
      </trkpt>
      <trkpt lat="48.850237000" lon="10.136940000">
        <ele>625.800</ele>
        <time>2026-02-26T16:31:27Z</time>
      </trkpt>
      <trkpt lat="48.850299000" lon="10.137175000">
        <ele>627.500</ele>
        <time>2026-02-26T16:31:35Z</time>
      </trkpt>
      <trkpt lat="48.850308000" lon="10.137285000">
        <ele>628.300</ele>
        <time>2026-02-26T16:31:40Z</time>
      </trkpt>
      <trkpt lat="48.850350000" lon="10.137396000">
        <ele>629.200</ele>
        <time>2026-02-26T16:31:46Z</time>
      </trkpt>
      <trkpt lat="48.850397000" lon="10.137646000">
        <ele>631.000</ele>
        <time>2026-02-26T16:31:55Z</time>
      </trkpt>
      <trkpt lat="48.850430000" lon="10.137752000">
        <ele>631.800</ele>
        <time>2026-02-26T16:31:59Z</time>
      </trkpt>
      <trkpt lat="48.850486000" lon="10.137841000">
        <ele>632.600</ele>
        <time>2026-02-26T16:32:02Z</time>
      </trkpt>
      <trkpt lat="48.850578000" lon="10.138456000">
        <ele>636.900</ele>
        <time>2026-02-26T16:32:24Z</time>
      </trkpt>
      <trkpt lat="48.850564000" lon="10.138588000">
        <ele>637.800</ele>
        <time>2026-02-26T16:32:28Z</time>
      </trkpt>
      <trkpt lat="48.850572000" lon="10.138703000">
        <ele>638.600</ele>
        <time>2026-02-26T16:32:33Z</time>
      </trkpt>
      <trkpt lat="48.850563000" lon="10.138934000">
        <ele>640.100</ele>
        <time>2026-02-26T16:32:41Z</time>
      </trkpt>
      <trkpt lat="48.850520000" lon="10.139030000">
        <ele>640.800</ele>
        <time>2026-02-26T16:32:45Z</time>
      </trkpt>
      <trkpt lat="48.850452000" lon="10.139080000">
        <ele>641.500</ele>
        <time>2026-02-26T16:32:50Z</time>
      </trkpt>
      <trkpt lat="48.850379000" lon="10.139079000">
        <ele>642.200</ele>
        <time>2026-02-26T16:32:53Z</time>
      </trkpt>
      <trkpt lat="48.850293000" lon="10.139017000">
        <ele>642.700</ele>
        <time>2026-02-26T16:32:57Z</time>
      </trkpt>
      <trkpt lat="48.850175000" lon="10.138667000">
        <ele>643.600</ele>
        <time>2026-02-26T16:33:09Z</time>
      </trkpt>
      <trkpt lat="48.850118000" lon="10.138445000">
        <ele>644.300</ele>
        <time>2026-02-26T16:33:15Z</time>
      </trkpt>
      <trkpt lat="48.850071000" lon="10.138322000">
        <ele>644.800</ele>
        <time>2026-02-26T16:33:19Z</time>
      </trkpt>
      <trkpt lat="48.850002000" lon="10.138226000">
        <ele>645.400</ele>
        <time>2026-02-26T16:33:23Z</time>
      </trkpt>
      <trkpt lat="48.849856000" lon="10.137924000">
        <ele>647.200</ele>
        <time>2026-02-26T16:33:36Z</time>
      </trkpt>
      <trkpt lat="48.849791000" lon="10.137875000">
        <ele>647.800</ele>
        <time>2026-02-26T16:33:39Z</time>
      </trkpt>
      <trkpt lat="48.849380000" lon="10.137438000">
        <ele>652.100</ele>
        <time>2026-02-26T16:34:05Z</time>
      </trkpt>
      <trkpt lat="48.849215000" lon="10.137173000">
        <ele>654.200</ele>
        <time>2026-02-26T16:34:17Z</time>
      </trkpt>
      <trkpt lat="48.849116000" lon="10.136962000">
        <ele>655.600</ele>
        <time>2026-02-26T16:34:25Z</time>
      </trkpt>
      <trkpt lat="48.848905000" lon="10.136707000">
        <ele>657.900</ele>
        <time>2026-02-26T16:34:37Z</time>
      </trkpt>
      <trkpt lat="48.848772000" lon="10.136575000">
        <ele>659.200</ele>
        <time>2026-02-26T16:34:45Z</time>
      </trkpt>
      <trkpt lat="48.848647000" lon="10.136421000">
        <ele>660.600</ele>
        <time>2026-02-26T16:34:55Z</time>
      </trkpt>
      <trkpt lat="48.848489000" lon="10.136310000">
        <ele>662.000</ele>
        <time>2026-02-26T16:35:03Z</time>
      </trkpt>
      <trkpt lat="48.848341000" lon="10.136251000">
        <ele>663.300</ele>
        <time>2026-02-26T16:35:14Z</time>
      </trkpt>
      <trkpt lat="48.848252000" lon="10.136265000">
        <ele>664.100</ele>
        <time>2026-02-26T16:35:19Z</time>
      </trkpt>
      <trkpt lat="48.848179000" lon="10.136255000">
        <ele>664.800</ele>
        <time>2026-02-26T16:35:24Z</time>
      </trkpt>
      <trkpt lat="48.847870000" lon="10.136375000">
        <ele>667.900</ele>
        <time>2026-02-26T16:35:45Z</time>
      </trkpt>
      <trkpt lat="48.847604000" lon="10.136623000">
        <ele>670.800</ele>
        <time>2026-02-26T16:36:14Z</time>
      </trkpt>
      <trkpt lat="48.847420000" lon="10.136909000">
        <ele>673.300</ele>
        <time>2026-02-26T16:36:31Z</time>
      </trkpt>
      <trkpt lat="48.847355000" lon="10.136960000">
        <ele>674.000</ele>
        <time>2026-02-26T16:36:35Z</time>
      </trkpt>
      <trkpt lat="48.847176000" lon="10.137204000">
        <ele>676.200</ele>
        <time>2026-02-26T16:36:51Z</time>
      </trkpt>
      <trkpt lat="48.846843000" lon="10.137588000">
        <ele>680.100</ele>
        <time>2026-02-26T16:37:16Z</time>
      </trkpt>
      <trkpt lat="48.846727000" lon="10.137786000">
        <ele>681.800</ele>
        <time>2026-02-26T16:37:26Z</time>
      </trkpt>
      <trkpt lat="48.846580000" lon="10.137949000">
        <ele>683.400</ele>
        <time>2026-02-26T16:37:35Z</time>
      </trkpt>
      <trkpt lat="48.846282000" lon="10.138392000">
        <ele>687.100</ele>
        <time>2026-02-26T16:37:57Z</time>
      </trkpt>
      <trkpt lat="48.846020000" lon="10.138670000">
        <ele>690.000</ele>
        <time>2026-02-26T16:38:14Z</time>
      </trkpt>
      <trkpt lat="48.845947000" lon="10.138724000">
        <ele>690.700</ele>
        <time>2026-02-26T16:38:18Z</time>
      </trkpt>
      <trkpt lat="48.845880000" lon="10.138810000">
        <ele>691.500</ele>
        <time>2026-02-26T16:38:23Z</time>
      </trkpt>
      <trkpt lat="48.845746000" lon="10.138933000">
        <ele>692.800</ele>
        <time>2026-02-26T16:38:32Z</time>
      </trkpt>
      <trkpt lat="48.845566000" lon="10.139171000">
        <ele>694.900</ele>
        <time>2026-02-26T16:38:44Z</time>
      </trkpt>
      <trkpt lat="48.845420000" lon="10.139605000">
        <ele>698.000</ele>
        <time>2026-02-26T16:39:02Z</time>
      </trkpt>
      <trkpt lat="48.845259000" lon="10.139893000">
        <ele>700.400</ele>
        <time>2026-02-26T16:39:15Z</time>
      </trkpt>
      <trkpt lat="48.845130000" lon="10.140060000">
        <ele>701.700</ele>
        <time>2026-02-26T16:39:23Z</time>
      </trkpt>
      <trkpt lat="48.844919000" lon="10.140280000">
        <ele>703.600</ele>
        <time>2026-02-26T16:39:34Z</time>
      </trkpt>
      <trkpt lat="48.844872000" lon="10.140378000">
        <ele>704.700</ele>
        <time>2026-02-26T16:39:39Z</time>
      </trkpt>
      <trkpt lat="48.844858000" lon="10.140604000">
        <ele>706.000</ele>
        <time>2026-02-26T16:39:50Z</time>
      </trkpt>
      <trkpt lat="48.844895000" lon="10.140835000">
        <ele>707.400</ele>
        <time>2026-02-26T16:39:58Z</time>
      </trkpt>
      <trkpt lat="48.844904000" lon="10.141212000">
        <ele>709.100</ele>
        <time>2026-02-26T16:40:11Z</time>
      </trkpt>
      <trkpt lat="48.844896000" lon="10.141332000">
        <ele>709.700</ele>
        <time>2026-02-26T16:40:15Z</time>
      </trkpt>
      <trkpt lat="48.844913000" lon="10.142092000">
        <ele>712.900</ele>
        <time>2026-02-26T16:40:39Z</time>
      </trkpt>
      <trkpt lat="48.844958000" lon="10.142343000">
        <ele>713.800</ele>
        <time>2026-02-26T16:40:48Z</time>
      </trkpt>
      <trkpt lat="48.845003000" lon="10.142709000">
        <ele>714.500</ele>
        <time>2026-02-26T16:40:59Z</time>
      </trkpt>
      <trkpt lat="48.845051000" lon="10.142980000">
        <ele>714.400</ele>
        <time>2026-02-26T16:41:07Z</time>
      </trkpt>
      <trkpt lat="48.845029000" lon="10.143122000">
        <ele>714.300</ele>
        <time>2026-02-26T16:41:10Z</time>
      </trkpt>
      <trkpt lat="48.844963000" lon="10.143195000">
        <ele>714.100</ele>
        <time>2026-02-26T16:41:12Z</time>
      </trkpt>
      <trkpt lat="48.844763000" lon="10.143317000">
        <ele>713.400</ele>
        <time>2026-02-26T16:41:16Z</time>
      </trkpt>
      <trkpt lat="48.844636000" lon="10.143550000">
        <ele>712.200</ele>
        <time>2026-02-26T16:41:17Z</time>
      </trkpt>
      <trkpt lat="48.844525000" lon="10.143574000">
        <ele>711.300</ele>
        <time>2026-02-26T16:41:20Z</time>
      </trkpt>
      <trkpt lat="48.843955000" lon="10.143819000">
        <ele>707.600</ele>
        <time>2026-02-26T16:41:30Z</time>
      </trkpt>
      <trkpt lat="48.843878000" lon="10.143801000">
        <ele>707.200</ele>
        <time>2026-02-26T16:41:32Z</time>
      </trkpt>
      <trkpt lat="48.843760000" lon="10.143858000">
        <ele>706.500</ele>
        <time>2026-02-26T16:41:34Z</time>
      </trkpt>
      <trkpt lat="48.843384000" lon="10.144270000">
        <ele>704.300</ele>
        <time>2026-02-26T16:41:42Z</time>
      </trkpt>
      <trkpt lat="48.843297000" lon="10.144400000">
        <ele>703.900</ele>
        <time>2026-02-26T16:41:44Z</time>
      </trkpt>
      <trkpt lat="48.843216000" lon="10.144485000">
        <ele>703.500</ele>
        <time>2026-02-26T16:41:46Z</time>
      </trkpt>
      <trkpt lat="48.843063000" lon="10.144709000">
        <ele>702.800</ele>
        <time>2026-02-26T16:41:50Z</time>
      </trkpt>
      <trkpt lat="48.842990000" lon="10.144784000">
        <ele>702.600</ele>
        <time>2026-02-26T16:41:52Z</time>
      </trkpt>
      <trkpt lat="48.842858000" lon="10.144971000">
        <ele>702.200</ele>
        <time>2026-02-26T16:41:56Z</time>
      </trkpt>
      <trkpt lat="48.842777000" lon="10.145054000">
        <ele>702.100</ele>
        <time>2026-02-26T16:41:58Z</time>
      </trkpt>
      <trkpt lat="48.842675000" lon="10.145241000">
        <ele>702.500</ele>
        <time>2026-02-26T16:42:05Z</time>
      </trkpt>
      <trkpt lat="48.842130000" lon="10.145703000">
        <ele>703.800</ele>
        <time>2026-02-26T16:42:26Z</time>
      </trkpt>
      <trkpt lat="48.842051000" lon="10.145786000">
        <ele>704.400</ele>
        <time>2026-02-26T16:42:29Z</time>
      </trkpt>
      <trkpt lat="48.841759000" lon="10.146001000">
        <ele>706.600</ele>
        <time>2026-02-26T16:42:42Z</time>
      </trkpt>
      <trkpt lat="48.841638000" lon="10.146163000">
        <ele>707.600</ele>
        <time>2026-02-26T16:42:53Z</time>
      </trkpt>
      <trkpt lat="48.841608000" lon="10.146275000">
        <ele>708.100</ele>
        <time>2026-02-26T16:42:57Z</time>
      </trkpt>
      <trkpt lat="48.841545000" lon="10.146336000">
        <ele>708.600</ele>
        <time>2026-02-26T16:43:00Z</time>
      </trkpt>
      <trkpt lat="48.841471000" lon="10.146374000">
        <ele>709.200</ele>
        <time>2026-02-26T16:43:03Z</time>
      </trkpt>
      <trkpt lat="48.841411000" lon="10.146445000">
        <ele>710.000</ele>
        <time>2026-02-26T16:43:09Z</time>
      </trkpt>
      <trkpt lat="48.841330000" lon="10.146684000">
        <ele>711.800</ele>
        <time>2026-02-26T16:43:22Z</time>
      </trkpt>
      <trkpt lat="48.841308000" lon="10.146790000">
        <ele>712.600</ele>
        <time>2026-02-26T16:43:26Z</time>
      </trkpt>
      <trkpt lat="48.841338000" lon="10.146900000">
        <ele>713.400</ele>
        <time>2026-02-26T16:43:31Z</time>
      </trkpt>
      <trkpt lat="48.841340000" lon="10.147024000">
        <ele>714.100</ele>
        <time>2026-02-26T16:43:36Z</time>
      </trkpt>
      <trkpt lat="48.841308000" lon="10.147254000">
        <ele>715.300</ele>
        <time>2026-02-26T16:43:44Z</time>
      </trkpt>
      <trkpt lat="48.841385000" lon="10.147735000">
        <ele>716.800</ele>
        <time>2026-02-26T16:43:59Z</time>
      </trkpt>
      <trkpt lat="48.841396000" lon="10.147965000">
        <ele>717.600</ele>
        <time>2026-02-26T16:44:07Z</time>
      </trkpt>
      <trkpt lat="48.841480000" lon="10.148541000">
        <ele>718.500</ele>
        <time>2026-02-26T16:44:27Z</time>
      </trkpt>
      <trkpt lat="48.841457000" lon="10.149042000">
        <ele>717.500</ele>
        <time>2026-02-26T16:44:45Z</time>
      </trkpt>
      <trkpt lat="48.841471000" lon="10.149182000">
        <ele>717.100</ele>
        <time>2026-02-26T16:44:49Z</time>
      </trkpt>
      <trkpt lat="48.841410000" lon="10.149417000">
        <ele>716.400</ele>
        <time>2026-02-26T16:44:58Z</time>
      </trkpt>
      <trkpt lat="48.841413000" lon="10.149913000">
        <ele>714.700</ele>
        <time>2026-02-26T16:45:13Z</time>
      </trkpt>
      <trkpt lat="48.841378000" lon="10.150030000">
        <ele>714.300</ele>
        <time>2026-02-26T16:45:16Z</time>
      </trkpt>
      <trkpt lat="48.841407000" lon="10.150281000">
        <ele>713.400</ele>
        <time>2026-02-26T16:45:22Z</time>
      </trkpt>
      <trkpt lat="48.841381000" lon="10.150405000">
        <ele>713.000</ele>
        <time>2026-02-26T16:45:25Z</time>
      </trkpt>
      <trkpt lat="48.841265000" lon="10.150638000">
        <ele>712.200</ele>
        <time>2026-02-26T16:45:32Z</time>
      </trkpt>
      <trkpt lat="48.841289000" lon="10.150897000">
        <ele>711.300</ele>
        <time>2026-02-26T16:45:40Z</time>
      </trkpt>
      <trkpt lat="48.841256000" lon="10.151167000">
        <ele>710.000</ele>
        <time>2026-02-26T16:45:47Z</time>
      </trkpt>
      <trkpt lat="48.841232000" lon="10.151271000">
        <ele>709.800</ele>
        <time>2026-02-26T16:45:50Z</time>
      </trkpt>
      <trkpt lat="48.841282000" lon="10.151517000">
        <ele>709.200</ele>
        <time>2026-02-26T16:45:56Z</time>
      </trkpt>
      <trkpt lat="48.841197000" lon="10.151725000">
        <ele>708.400</ele>
        <time>2026-02-26T16:46:02Z</time>
      </trkpt>
      <trkpt lat="48.841190000" lon="10.151883000">
        <ele>708.100</ele>
        <time>2026-02-26T16:46:06Z</time>
      </trkpt>
      <trkpt lat="48.841228000" lon="10.152133000">
        <ele>707.500</ele>
        <time>2026-02-26T16:46:12Z</time>
      </trkpt>
      <trkpt lat="48.841207000" lon="10.152238000">
        <ele>707.300</ele>
        <time>2026-02-26T16:46:15Z</time>
      </trkpt>
      <trkpt lat="48.841197000" lon="10.152381000">
        <ele>706.700</ele>
        <time>2026-02-26T16:46:19Z</time>
      </trkpt>
      <trkpt lat="48.841214000" lon="10.152504000">
        <ele>706.300</ele>
        <time>2026-02-26T16:46:23Z</time>
      </trkpt>
      <trkpt lat="48.841202000" lon="10.152627000">
        <ele>705.800</ele>
        <time>2026-02-26T16:46:28Z</time>
      </trkpt>
      <trkpt lat="48.841242000" lon="10.152726000">
        <ele>705.100</ele>
        <time>2026-02-26T16:46:36Z</time>
      </trkpt>
      <trkpt lat="48.841266000" lon="10.152843000">
        <ele>704.800</ele>
        <time>2026-02-26T16:46:42Z</time>
      </trkpt>
      <trkpt lat="48.841258000" lon="10.152969000">
        <ele>704.400</ele>
        <time>2026-02-26T16:46:47Z</time>
      </trkpt>
      <trkpt lat="48.841267000" lon="10.153102000">
        <ele>704.000</ele>
        <time>2026-02-26T16:46:49Z</time>
      </trkpt>
      <trkpt lat="48.841188000" lon="10.153352000">
        <ele>703.200</ele>
        <time>2026-02-26T16:46:58Z</time>
      </trkpt>
      <trkpt lat="48.841176000" lon="10.153471000">
        <ele>702.900</ele>
        <time>2026-02-26T16:47:03Z</time>
      </trkpt>
      <trkpt lat="48.841184000" lon="10.153697000">
        <ele>702.500</ele>
        <time>2026-02-26T16:47:11Z</time>
      </trkpt>
      <trkpt lat="48.841112000" lon="10.153811000">
        <ele>702.400</ele>
        <time>2026-02-26T16:47:15Z</time>
      </trkpt>
      <trkpt lat="48.840951000" lon="10.153912000">
        <ele>702.400</ele>
        <time>2026-02-26T16:47:23Z</time>
      </trkpt>
      <trkpt lat="48.840893000" lon="10.154857000">
        <ele>702.900</ele>
        <time>2026-02-26T16:49:04Z</time>
      </trkpt>
      <trkpt lat="48.840805000" lon="10.155218000">
        <ele>703.300</ele>
        <time>2026-02-26T16:49:14Z</time>
      </trkpt>
      <trkpt lat="48.840780000" lon="10.155556000">
        <ele>703.400</ele>
        <time>2026-02-26T16:49:29Z</time>
      </trkpt>
      <trkpt lat="48.840735000" lon="10.155906000">
        <ele>703.500</ele>
        <time>2026-02-26T16:49:41Z</time>
      </trkpt>
      <trkpt lat="48.840658000" lon="10.156294000">
        <ele>703.400</ele>
        <time>2026-02-26T16:49:51Z</time>
      </trkpt>
      <trkpt lat="48.840612000" lon="10.156649000">
        <ele>703.300</ele>
        <time>2026-02-26T16:50:02Z</time>
      </trkpt>
      <trkpt lat="48.840573000" lon="10.156747000">
        <ele>703.300</ele>
        <time>2026-02-26T16:50:09Z</time>
      </trkpt>
      <trkpt lat="48.840503000" lon="10.156804000">
        <ele>703.300</ele>
        <time>2026-02-26T16:50:15Z</time>
      </trkpt>
      <trkpt lat="48.840424000" lon="10.156817000">
        <ele>703.100</ele>
        <time>2026-02-26T16:50:20Z</time>
      </trkpt>
      <trkpt lat="48.840288000" lon="10.156979000">
        <ele>702.900</ele>
        <time>2026-02-26T16:50:26Z</time>
      </trkpt>
      <trkpt lat="48.840214000" lon="10.157103000">
        <ele>702.700</ele>
        <time>2026-02-26T16:50:28Z</time>
      </trkpt>
      <trkpt lat="48.839605000" lon="10.157028000">
        <ele>701.800</ele>
        <time>2026-02-26T16:50:54Z</time>
      </trkpt>
      <trkpt lat="48.839446000" lon="10.157049000">
        <ele>701.500</ele>
        <time>2026-02-26T16:50:58Z</time>
      </trkpt>
      <trkpt lat="48.839090000" lon="10.157055000">
        <ele>700.600</ele>
        <time>2026-02-26T16:51:04Z</time>
      </trkpt>
      <trkpt lat="48.838664000" lon="10.156977000">
        <ele>699.300</ele>
        <time>2026-02-26T16:51:12Z</time>
      </trkpt>
      <trkpt lat="48.838385000" lon="10.156970000">
        <ele>698.300</ele>
        <time>2026-02-26T16:51:16Z</time>
      </trkpt>
      <trkpt lat="48.837722000" lon="10.156811000">
        <ele>695.300</ele>
        <time>2026-02-26T16:51:25Z</time>
      </trkpt>
      <trkpt lat="48.837647000" lon="10.156772000">
        <ele>694.900</ele>
        <time>2026-02-26T16:51:26Z</time>
      </trkpt>
      <trkpt lat="48.837557000" lon="10.156835000">
        <ele>694.300</ele>
        <time>2026-02-26T16:51:27Z</time>
      </trkpt>
      <trkpt lat="48.837255000" lon="10.156856000">
        <ele>692.100</ele>
        <time>2026-02-26T16:51:30Z</time>
      </trkpt>
      <trkpt lat="48.836892000" lon="10.156840000">
        <ele>689.500</ele>
        <time>2026-02-26T16:51:34Z</time>
      </trkpt>
      <trkpt lat="48.836810000" lon="10.156816000">
        <ele>688.900</ele>
        <time>2026-02-26T16:51:35Z</time>
      </trkpt>
      <trkpt lat="48.836611000" lon="10.156841000">
        <ele>687.500</ele>
        <time>2026-02-26T16:51:37Z</time>
      </trkpt>
      <trkpt lat="48.836521000" lon="10.156831000">
        <ele>686.900</ele>
        <time>2026-02-26T16:51:38Z</time>
      </trkpt>
      <trkpt lat="48.836440000" lon="10.156794000">
        <ele>686.300</ele>
        <time>2026-02-26T16:51:39Z</time>
      </trkpt>
      <trkpt lat="48.836340000" lon="10.156803000">
        <ele>685.600</ele>
        <time>2026-02-26T16:51:40Z</time>
      </trkpt>
      <trkpt lat="48.836255000" lon="10.156781000">
        <ele>685.000</ele>
        <time>2026-02-26T16:51:41Z</time>
      </trkpt>
      <trkpt lat="48.836138000" lon="10.156814000">
        <ele>684.200</ele>
        <time>2026-02-26T16:51:42Z</time>
      </trkpt>
      <trkpt lat="48.836039000" lon="10.156817000">
        <ele>683.500</ele>
        <time>2026-02-26T16:51:43Z</time>
      </trkpt>
      <trkpt lat="48.835798000" lon="10.156684000">
        <ele>681.800</ele>
        <time>2026-02-26T16:51:46Z</time>
      </trkpt>
      <trkpt lat="48.835258000" lon="10.156560000">
        <ele>677.900</ele>
        <time>2026-02-26T16:51:52Z</time>
      </trkpt>
      <trkpt lat="48.835149000" lon="10.156574000">
        <ele>677.300</ele>
        <time>2026-02-26T16:51:53Z</time>
      </trkpt>
      <trkpt lat="48.834763000" lon="10.156567000">
        <ele>676.100</ele>
        <time>2026-02-26T16:51:57Z</time>
      </trkpt>
      <trkpt lat="48.834676000" lon="10.156592000">
        <ele>676.000</ele>
        <time>2026-02-26T16:51:58Z</time>
      </trkpt>
      <trkpt lat="48.834597000" lon="10.156589000">
        <ele>675.900</ele>
        <time>2026-02-26T16:51:59Z</time>
      </trkpt>
      <trkpt lat="48.834367000" lon="10.156525000">
        <ele>675.700</ele>
        <time>2026-02-26T16:52:02Z</time>
      </trkpt>
      <trkpt lat="48.833993000" lon="10.156528000">
        <ele>676.000</ele>
        <time>2026-02-26T16:52:07Z</time>
      </trkpt>
      <trkpt lat="48.833897000" lon="10.156551000">
        <ele>676.200</ele>
        <time>2026-02-26T16:52:08Z</time>
      </trkpt>
      <trkpt lat="48.833575000" lon="10.156470000">
        <ele>676.800</ele>
        <time>2026-02-26T16:52:13Z</time>
      </trkpt>
      <trkpt lat="48.833435000" lon="10.156455000">
        <ele>677.000</ele>
        <time>2026-02-26T16:52:15Z</time>
      </trkpt>
      <trkpt lat="48.833164000" lon="10.156498000">
        <ele>677.500</ele>
        <time>2026-02-26T16:52:19Z</time>
      </trkpt>
      <trkpt lat="48.833043000" lon="10.156470000">
        <ele>677.700</ele>
        <time>2026-02-26T16:52:21Z</time>
      </trkpt>
      <trkpt lat="48.832900000" lon="10.156470000">
        <ele>677.800</ele>
        <time>2026-02-26T16:52:23Z</time>
      </trkpt>
      <trkpt lat="48.832797000" lon="10.156442000">
        <ele>677.900</ele>
        <time>2026-02-26T16:52:25Z</time>
      </trkpt>
      <trkpt lat="48.832562000" lon="10.156437000">
        <ele>677.900</ele>
        <time>2026-02-26T16:52:29Z</time>
      </trkpt>
      <trkpt lat="48.832351000" lon="10.156396000">
        <ele>677.800</ele>
        <time>2026-02-26T16:52:33Z</time>
      </trkpt>
      <trkpt lat="48.832050000" lon="10.156387000">
        <ele>677.600</ele>
        <time>2026-02-26T16:52:39Z</time>
      </trkpt>
      <trkpt lat="48.831707000" lon="10.156350000">
        <ele>677.300</ele>
        <time>2026-02-26T16:52:47Z</time>
      </trkpt>
      <trkpt lat="48.831612000" lon="10.156370000">
        <ele>677.300</ele>
        <time>2026-02-26T16:52:50Z</time>
      </trkpt>
      <trkpt lat="48.831560000" lon="10.156460000">
        <ele>676.100</ele>
        <time>2026-02-26T16:52:54Z</time>
      </trkpt>
      <trkpt lat="48.831547000" lon="10.156588000">
        <ele>674.000</ele>
        <time>2026-02-26T16:52:57Z</time>
      </trkpt>
      <trkpt lat="48.831468000" lon="10.156637000">
        <ele>673.300</ele>
        <time>2026-02-26T16:53:05Z</time>
      </trkpt>
      <trkpt lat="48.831389000" lon="10.156746000">
        <ele>672.800</ele>
        <time>2026-02-26T16:53:09Z</time>
      </trkpt>
      <trkpt lat="48.831320000" lon="10.156977000">
        <ele>672.100</ele>
        <time>2026-02-26T16:53:14Z</time>
      </trkpt>
      <trkpt lat="48.831233000" lon="10.157154000">
        <ele>671.600</ele>
        <time>2026-02-26T16:53:16Z</time>
      </trkpt>
      <trkpt lat="48.831130000" lon="10.157444000">
        <ele>670.900</ele>
        <time>2026-02-26T16:53:21Z</time>
      </trkpt>
      <trkpt lat="48.831140000" lon="10.157578000">
        <ele>670.600</ele>
        <time>2026-02-26T16:53:23Z</time>
      </trkpt>
      <trkpt lat="48.831129000" lon="10.157725000">
        <ele>670.300</ele>
        <time>2026-02-26T16:53:25Z</time>
      </trkpt>
      <trkpt lat="48.831053000" lon="10.157999000">
        <ele>669.700</ele>
        <time>2026-02-26T16:53:29Z</time>
      </trkpt>
      <trkpt lat="48.831022000" lon="10.158274000">
        <ele>669.000</ele>
        <time>2026-02-26T16:53:34Z</time>
      </trkpt>
      <trkpt lat="48.830971000" lon="10.158569000">
        <ele>668.400</ele>
        <time>2026-02-26T16:53:38Z</time>
      </trkpt>
      <trkpt lat="48.830845000" lon="10.158985000">
        <ele>667.400</ele>
        <time>2026-02-26T16:53:41Z</time>
      </trkpt>
      <trkpt lat="48.830691000" lon="10.159366000">
        <ele>666.500</ele>
        <time>2026-02-26T16:53:45Z</time>
      </trkpt>
      <trkpt lat="48.830639000" lon="10.159442000">
        <ele>666.400</ele>
        <time>2026-02-26T16:53:46Z</time>
      </trkpt>
      <trkpt lat="48.830593000" lon="10.159623000">
        <ele>666.100</ele>
        <time>2026-02-26T16:53:47Z</time>
      </trkpt>
      <trkpt lat="48.830547000" lon="10.159719000">
        <ele>666.000</ele>
        <time>2026-02-26T16:53:48Z</time>
      </trkpt>
      <trkpt lat="48.830524000" lon="10.159953000">
        <ele>665.800</ele>
        <time>2026-02-26T16:53:50Z</time>
      </trkpt>
      <trkpt lat="48.830292000" lon="10.160862000">
        <ele>665.600</ele>
        <time>2026-02-26T16:54:02Z</time>
      </trkpt>
      <trkpt lat="48.830195000" lon="10.161334000">
        <ele>665.600</ele>
        <time>2026-02-26T16:54:15Z</time>
      </trkpt>
      <trkpt lat="48.830121000" lon="10.161339000">
        <ele>665.300</ele>
        <time>2026-02-26T16:54:20Z</time>
      </trkpt>
      <trkpt lat="48.830033000" lon="10.161315000">
        <ele>664.900</ele>
        <time>2026-02-26T16:54:23Z</time>
      </trkpt>
      <trkpt lat="48.829984000" lon="10.161516000">
        <ele>664.400</ele>
        <time>2026-02-26T16:54:26Z</time>
      </trkpt>
      <trkpt lat="48.829839000" lon="10.162341000">
        <ele>664.500</ele>
        <time>2026-02-26T16:54:36Z</time>
      </trkpt>
      <trkpt lat="48.829798000" lon="10.162499000">
        <ele>664.600</ele>
        <time>2026-02-26T16:54:38Z</time>
      </trkpt>
      <trkpt lat="48.829739000" lon="10.162564000">
        <ele>664.700</ele>
        <time>2026-02-26T16:54:39Z</time>
      </trkpt>
      <trkpt lat="48.829601000" lon="10.163227000">
        <ele>665.200</ele>
        <time>2026-02-26T16:54:47Z</time>
      </trkpt>
      <trkpt lat="48.829554000" lon="10.163388000">
        <ele>665.400</ele>
        <time>2026-02-26T16:54:49Z</time>
      </trkpt>
      <trkpt lat="48.829463000" lon="10.163853000">
        <ele>665.800</ele>
        <time>2026-02-26T16:54:55Z</time>
      </trkpt>
      <trkpt lat="48.829446000" lon="10.163999000">
        <ele>665.900</ele>
        <time>2026-02-26T16:54:57Z</time>
      </trkpt>
      <trkpt lat="48.829367000" lon="10.164298000">
        <ele>666.100</ele>
        <time>2026-02-26T16:55:01Z</time>
      </trkpt>
      <trkpt lat="48.829359000" lon="10.164451000">
        <ele>666.200</ele>
        <time>2026-02-26T16:55:03Z</time>
      </trkpt>
      <trkpt lat="48.829337000" lon="10.164582000">
        <ele>666.300</ele>
        <time>2026-02-26T16:55:05Z</time>
      </trkpt>
      <trkpt lat="48.829287000" lon="10.164729000">
        <ele>666.500</ele>
        <time>2026-02-26T16:55:07Z</time>
      </trkpt>
      <trkpt lat="48.829081000" lon="10.165069000">
        <ele>666.900</ele>
        <time>2026-02-26T16:55:13Z</time>
      </trkpt>
      <trkpt lat="48.829042000" lon="10.165182000">
        <ele>666.800</ele>
        <time>2026-02-26T16:55:15Z</time>
      </trkpt>
      <trkpt lat="48.829015000" lon="10.165362000">
        <ele>666.500</ele>
        <time>2026-02-26T16:55:18Z</time>
      </trkpt>
      <trkpt lat="48.828990000" lon="10.165673000">
        <ele>665.900</ele>
        <time>2026-02-26T16:55:22Z</time>
      </trkpt>
      <trkpt lat="48.828944000" lon="10.165991000">
        <ele>665.100</ele>
        <time>2026-02-26T16:55:26Z</time>
      </trkpt>
      <trkpt lat="48.828696000" lon="10.166822000">
        <ele>661.700</ele>
        <time>2026-02-26T16:55:36Z</time>
      </trkpt>
      <trkpt lat="48.828654000" lon="10.167037000">
        <ele>660.100</ele>
        <time>2026-02-26T16:55:38Z</time>
      </trkpt>
      <trkpt lat="48.828577000" lon="10.167882000">
        <ele>652.900</ele>
        <time>2026-02-26T16:55:44Z</time>
      </trkpt>
      <trkpt lat="48.828383000" lon="10.168885000">
        <ele>647.600</ele>
        <time>2026-02-26T16:55:50Z</time>
      </trkpt>
      <trkpt lat="48.828340000" lon="10.169202000">
        <ele>646.700</ele>
        <time>2026-02-26T16:55:52Z</time>
      </trkpt>
      <trkpt lat="48.827885000" lon="10.171178000">
        <ele>644.100</ele>
        <time>2026-02-26T16:56:08Z</time>
      </trkpt>
      <trkpt lat="48.827775000" lon="10.171565000">
        <ele>644.100</ele>
        <time>2026-02-26T16:56:12Z</time>
      </trkpt>
      <trkpt lat="48.827585000" lon="10.172448000">
        <ele>642.900</ele>
        <time>2026-02-26T16:56:21Z</time>
      </trkpt>
      <trkpt lat="48.827395000" lon="10.173165000">
        <ele>640.900</ele>
        <time>2026-02-26T16:56:28Z</time>
      </trkpt>
      <trkpt lat="48.827232000" lon="10.173552000">
        <ele>640.000</ele>
        <time>2026-02-26T16:56:32Z</time>
      </trkpt>
      <trkpt lat="48.826990000" lon="10.174003000">
        <ele>638.300</ele>
        <time>2026-02-26T16:56:37Z</time>
      </trkpt>
      <trkpt lat="48.826933000" lon="10.174081000">
        <ele>637.800</ele>
        <time>2026-02-26T16:56:38Z</time>
      </trkpt>
      <trkpt lat="48.826889000" lon="10.174183000">
        <ele>637.300</ele>
        <time>2026-02-26T16:56:39Z</time>
      </trkpt>
      <trkpt lat="48.826245000" lon="10.175240000">
        <ele>632.100</ele>
        <time>2026-02-26T16:56:50Z</time>
      </trkpt>
      <trkpt lat="48.826061000" lon="10.175635000">
        <ele>631.100</ele>
        <time>2026-02-26T16:56:54Z</time>
      </trkpt>
      <trkpt lat="48.825880000" lon="10.176168000">
        <ele>630.100</ele>
        <time>2026-02-26T16:56:59Z</time>
      </trkpt>
      <trkpt lat="48.825597000" lon="10.176801000">
        <ele>629.000</ele>
        <time>2026-02-26T16:57:06Z</time>
      </trkpt>
      <trkpt lat="48.825487000" lon="10.177172000">
        <ele>628.600</ele>
        <time>2026-02-26T16:57:10Z</time>
      </trkpt>
      <trkpt lat="48.825447000" lon="10.177522000">
        <ele>628.100</ele>
        <time>2026-02-26T16:57:13Z</time>
      </trkpt>
      <trkpt lat="48.825456000" lon="10.177642000">
        <ele>627.900</ele>
        <time>2026-02-26T16:57:14Z</time>
      </trkpt>
      <trkpt lat="48.825440000" lon="10.177756000">
        <ele>627.700</ele>
        <time>2026-02-26T16:57:15Z</time>
      </trkpt>
      <trkpt lat="48.825450000" lon="10.177994000">
        <ele>627.400</ele>
        <time>2026-02-26T16:57:17Z</time>
      </trkpt>
      <trkpt lat="48.825431000" lon="10.178242000">
        <ele>627.100</ele>
        <time>2026-02-26T16:57:19Z</time>
      </trkpt>
      <trkpt lat="48.825465000" lon="10.178494000">
        <ele>626.900</ele>
        <time>2026-02-26T16:57:21Z</time>
      </trkpt>
      <trkpt lat="48.825461000" lon="10.178617000">
        <ele>626.700</ele>
        <time>2026-02-26T16:57:22Z</time>
      </trkpt>
      <trkpt lat="48.825522000" lon="10.179648000">
        <ele>626.000</ele>
        <time>2026-02-26T16:57:30Z</time>
      </trkpt>
      <trkpt lat="48.825601000" lon="10.179877000">
        <ele>625.900</ele>
        <time>2026-02-26T16:57:32Z</time>
      </trkpt>
      <trkpt lat="48.825657000" lon="10.180104000">
        <ele>625.800</ele>
        <time>2026-02-26T16:57:34Z</time>
      </trkpt>
      <trkpt lat="48.825659000" lon="10.180245000">
        <ele>625.800</ele>
        <time>2026-02-26T16:57:35Z</time>
      </trkpt>
      <trkpt lat="48.825754000" lon="10.180614000">
        <ele>625.700</ele>
        <time>2026-02-26T16:57:38Z</time>
      </trkpt>
      <trkpt lat="48.825823000" lon="10.180698000">
        <ele>625.700</ele>
        <time>2026-02-26T16:57:39Z</time>
      </trkpt>
      <trkpt lat="48.825920000" lon="10.180981000">
        <ele>625.600</ele>
        <time>2026-02-26T16:57:42Z</time>
      </trkpt>
      <trkpt lat="48.826001000" lon="10.181108000">
        <ele>625.500</ele>
        <time>2026-02-26T16:57:43Z</time>
      </trkpt>
      <trkpt lat="48.826140000" lon="10.181534000">
        <ele>625.100</ele>
        <time>2026-02-26T16:57:47Z</time>
      </trkpt>
      <trkpt lat="48.826185000" lon="10.181630000">
        <ele>625.000</ele>
        <time>2026-02-26T16:57:48Z</time>
      </trkpt>
      <trkpt lat="48.826213000" lon="10.181754000">
        <ele>624.800</ele>
        <time>2026-02-26T16:57:49Z</time>
      </trkpt>
      <trkpt lat="48.826354000" lon="10.182204000">
        <ele>624.100</ele>
        <time>2026-02-26T16:57:53Z</time>
      </trkpt>
      <trkpt lat="48.826435000" lon="10.182562000">
        <ele>623.500</ele>
        <time>2026-02-26T16:57:56Z</time>
      </trkpt>
      <trkpt lat="48.826493000" lon="10.182936000">
        <ele>622.800</ele>
        <time>2026-02-26T16:57:59Z</time>
      </trkpt>
      <trkpt lat="48.826521000" lon="10.183460000">
        <ele>622.100</ele>
        <time>2026-02-26T16:58:03Z</time>
      </trkpt>
      <trkpt lat="48.826502000" lon="10.183836000">
        <ele>621.700</ele>
        <time>2026-02-26T16:58:06Z</time>
      </trkpt>
      <trkpt lat="48.826514000" lon="10.184209000">
        <ele>621.300</ele>
        <time>2026-02-26T16:58:09Z</time>
      </trkpt>
      <trkpt lat="48.826485000" lon="10.184705000">
        <ele>620.800</ele>
        <time>2026-02-26T16:58:13Z</time>
      </trkpt>
      <trkpt lat="48.826442000" lon="10.184833000">
        <ele>620.700</ele>
        <time>2026-02-26T16:58:14Z</time>
      </trkpt>
      <trkpt lat="48.826372000" lon="10.185283000">
        <ele>620.400</ele>
        <time>2026-02-26T16:58:18Z</time>
      </trkpt>
      <trkpt lat="48.826334000" lon="10.185379000">
        <ele>620.400</ele>
        <time>2026-02-26T16:58:19Z</time>
      </trkpt>
      <trkpt lat="48.826271000" lon="10.185701000">
        <ele>620.200</ele>
        <time>2026-02-26T16:58:22Z</time>
      </trkpt>
      <trkpt lat="48.826104000" lon="10.186246000">
        <ele>619.800</ele>
        <time>2026-02-26T16:58:27Z</time>
      </trkpt>
      <trkpt lat="48.826017000" lon="10.186668000">
        <ele>619.500</ele>
        <time>2026-02-26T16:58:31Z</time>
      </trkpt>
      <trkpt lat="48.825922000" lon="10.186978000">
        <ele>619.300</ele>
        <time>2026-02-26T16:58:34Z</time>
      </trkpt>
      <trkpt lat="48.825847000" lon="10.187168000">
        <ele>619.300</ele>
        <time>2026-02-26T16:58:36Z</time>
      </trkpt>
      <trkpt lat="48.825778000" lon="10.187594000">
        <ele>619.300</ele>
        <time>2026-02-26T16:58:40Z</time>
      </trkpt>
      <trkpt lat="48.825704000" lon="10.187764000">
        <ele>619.300</ele>
        <time>2026-02-26T16:58:42Z</time>
      </trkpt>
      <trkpt lat="48.825347000" lon="10.189094000">
        <ele>618.900</ele>
        <time>2026-02-26T16:58:56Z</time>
      </trkpt>
      <trkpt lat="48.825209000" lon="10.189656000">
        <ele>618.600</ele>
        <time>2026-02-26T16:59:02Z</time>
      </trkpt>
      <trkpt lat="48.825142000" lon="10.190139000">
        <ele>618.300</ele>
        <time>2026-02-26T16:59:07Z</time>
      </trkpt>
      <trkpt lat="48.825063000" lon="10.190516000">
        <ele>618.100</ele>
        <time>2026-02-26T16:59:11Z</time>
      </trkpt>
      <trkpt lat="48.825012000" lon="10.190882000">
        <ele>618.000</ele>
        <time>2026-02-26T16:59:15Z</time>
      </trkpt>
      <trkpt lat="48.824942000" lon="10.191062000">
        <ele>617.900</ele>
        <time>2026-02-26T16:59:17Z</time>
      </trkpt>
      <trkpt lat="48.824860000" lon="10.191541000">
        <ele>617.800</ele>
        <time>2026-02-26T16:59:23Z</time>
      </trkpt>
      <trkpt lat="48.824845000" lon="10.191691000">
        <ele>617.900</ele>
        <time>2026-02-26T16:59:25Z</time>
      </trkpt>
      <trkpt lat="48.824679000" lon="10.192589000">
        <ele>618.000</ele>
        <time>2026-02-26T16:59:39Z</time>
      </trkpt>
      <trkpt lat="48.824543000" lon="10.192745000">
        <ele>617.900</ele>
        <time>2026-02-26T16:59:43Z</time>
      </trkpt>
      <trkpt lat="48.824516000" lon="10.192866000">
        <ele>617.900</ele>
        <time>2026-02-26T16:59:45Z</time>
      </trkpt>
      <trkpt lat="48.824511000" lon="10.192996000">
        <ele>617.800</ele>
        <time>2026-02-26T16:59:47Z</time>
      </trkpt>
      <trkpt lat="48.824549000" lon="10.193129000">
        <ele>617.700</ele>
        <time>2026-02-26T16:59:49Z</time>
      </trkpt>
      <trkpt lat="48.824533000" lon="10.193273000">
        <ele>617.500</ele>
        <time>2026-02-26T16:59:51Z</time>
      </trkpt>
      <trkpt lat="48.824474000" lon="10.193543000">
        <ele>617.300</ele>
        <time>2026-02-26T16:59:55Z</time>
      </trkpt>
      <trkpt lat="48.824472000" lon="10.193668000">
        <ele>617.200</ele>
        <time>2026-02-26T16:59:57Z</time>
      </trkpt>
      <trkpt lat="48.824418000" lon="10.193932000">
        <ele>617.000</ele>
        <time>2026-02-26T17:00:01Z</time>
      </trkpt>
      <trkpt lat="48.824314000" lon="10.194589000">
        <ele>616.600</ele>
        <time>2026-02-26T17:00:11Z</time>
      </trkpt>
      <trkpt lat="48.824271000" lon="10.194717000">
        <ele>616.400</ele>
        <time>2026-02-26T17:00:13Z</time>
      </trkpt>
      <trkpt lat="48.824182000" lon="10.194786000">
        <ele>616.100</ele>
        <time>2026-02-26T17:00:15Z</time>
      </trkpt>
      <trkpt lat="48.823990000" lon="10.194794000">
        <ele>615.500</ele>
        <time>2026-02-26T17:00:19Z</time>
      </trkpt>
      <trkpt lat="48.823789000" lon="10.194873000">
        <ele>614.800</ele>
        <time>2026-02-26T17:00:23Z</time>
      </trkpt>
      <trkpt lat="48.823601000" lon="10.195018000">
        <ele>614.100</ele>
        <time>2026-02-26T17:00:27Z</time>
      </trkpt>
      <trkpt lat="48.823446000" lon="10.195240000">
        <ele>613.500</ele>
        <time>2026-02-26T17:00:31Z</time>
      </trkpt>
      <trkpt lat="48.823327000" lon="10.195533000">
        <ele>612.900</ele>
        <time>2026-02-26T17:00:35Z</time>
      </trkpt>
      <trkpt lat="48.823020000" lon="10.197000000">
        <ele>611.200</ele>
        <time>2026-02-26T17:00:50Z</time>
      </trkpt>
      <trkpt lat="48.822938000" lon="10.197562000">
        <ele>610.800</ele>
        <time>2026-02-26T17:00:56Z</time>
      </trkpt>
      <trkpt lat="48.822862000" lon="10.197899000">
        <ele>610.500</ele>
        <time>2026-02-26T17:01:00Z</time>
      </trkpt>
      <trkpt lat="48.822651000" lon="10.198650000">
        <ele>610.100</ele>
        <time>2026-02-26T17:01:10Z</time>
      </trkpt>
      <trkpt lat="48.822480000" lon="10.199008000">
        <ele>610.000</ele>
        <time>2026-02-26T17:01:16Z</time>
      </trkpt>
      <trkpt lat="48.822264000" lon="10.199354000">
        <ele>609.500</ele>
        <time>2026-02-26T17:01:22Z</time>
      </trkpt>
      <trkpt lat="48.822133000" lon="10.199630000">
        <ele>609.000</ele>
        <time>2026-02-26T17:01:26Z</time>
      </trkpt>
    </trkseg>
  </trk>
</gpx>
